This is the latest recevied weather packets stored in our database for station/object LA9TLA-1. If no packets are shown the sender has not sent any weather packets the latest 10 day(s).
| Time | Temp. | Humidity | Pressure | Rain* | Wind** | Luminosity | Snow |
|---|---|---|---|---|---|---|---|
| 1777863466 | 5° C | 80% | 1019.5 hPa | 0 mm | - | - | - |
| 1777861666 | 5° C | 81% | 1019.6 hPa | 0 mm | - | - | - |
| 1777859864 | 5° C | 93% | 1019.5 hPa | 0 mm | - | - | - |
| 1777858063 | 5° C | 99% | 1019.9 hPa | 0 mm | - | - | - |
| 1777854465 | 5° C | 99% | 1019.7 hPa | 0 mm | - | - | - |
| 1777852669 | 5° C | 99% | 1019.7 hPa | 0 mm | - | - | - |
| 1777850870 | 5° C | 99% | 1019.5 hPa | 0 mm | - | - | - |
| 1777849065 | 5° C | 99% | 1019.6 hPa | 0 mm | - | - | - |
| 1777845466 | 5° C | 99% | 1019.4 hPa | 0 mm | - | - | - |
| 1777843666 | 5° C | 99% | 1019.5 hPa | 0 mm | - | - | - |
| 1777841866 | 5° C | 99% | 1019.7 hPa | 0 mm | - | - | - |
| 1777840064 | 5.56° C | 99% | 1019.4 hPa | 0 mm | - | - | - |
| 1777838268 | 5.56° C | 92% | 1019.5 hPa | 0 mm | - | - | - |
| 1777836466 | 6.67° C | 64% | 1019.2 hPa | 0 mm | - | - | - |
| 1777834666 | 7.22° C | 51% | 1019.2 hPa | 0 mm | - | - | - |
| 1777832863 | 7.78° C | 43% | 1018.9 hPa | 0 mm | - | - | - |
| 1777829268 | 9.44° C | 25% | 1018.7 hPa | 0 mm | - | - | - |
| 1777827464 | 10° C | 29% | 1019 hPa | 0 mm | - | - | - |
| 1777823864 | 10.56° C | 33% | 1019.4 hPa | 0 mm | - | - | - |
| 1777822066 | 10.56° C | 41% | 1019.6 hPa | 0 mm | - | - | - |
| 1777820263 | 10.56° C | 45% | 1019.7 hPa | 0 mm | - | - | - |
| 1777818465 | 10.56° C | 54% | 1019.7 hPa | 0 mm | - | - | - |
| 1777816666 | 11.11° C | 59% | 1019.9 hPa | 0 mm | - | - | - |
| 1777814863 | 10° C | 77% | 1020.2 hPa | 0 mm | - | - | - |
| 1777813065 | 10° C | 67% | 1020.5 hPa | 0 mm | - | - | - |
* Rain latest hour (hover to see other rain measurements)
** Current wind speed in m/s (hover to see current wind gust speed)